Seybold, Florida
Current Conditions -  °F | °C
As of 7:27 AM on Friday 24 Oct 2014 (Local Time) from KMIA Reporting Station
Light Rain Light Rain  
Wind Chill: 74°   Ceiling: 1000
Heat Index: 74°   Visibility: 9mi
Dew Point: 72°   Wind: 10mph
Humidity: 93%   Direction: 40°NE
Pressure: 29.84"   Gusts: NA
Location:  25.7849°N, 80.1896°W
Report Text: KMIA 241127Z 04009KT 9SM -RA BKN010 OVC017 23/22 A2984 RMK AO2 P0002 T02330222
Loading
Personal Weather Stations






























Interactive Weather Map
Tropical Storm Tracking
New forecast layout! Learn more

10-Day Weather Forecast

Advertisements
Track Severe Weather on mobile